CES583 ZSPD-KLAX
Flight info
| Callsign | CES583 |
|---|---|
| Flight time | N/A |
| Altitude | 35000 |
| Route | LAM81D LAMEN A593 SADLI Y590 BEDAR Y591 FUE Y23 KASTE Y81 TASOT Y57 POROT Y809 IDLAN Y812 ADNAP OTR5 KALNA DCT 43N160E 44N170E 43N180E 41N170W 41N160W 40N150W 37N140W 34N130W 33N127W DCT EDSEL DCT FICKY GOATZ2 |
| Aircraft | B77W/H-SDE1E2E3FGHIJ2J3J4J5M1RWXY/LB1D1 |
Departure
| Time | 2026-05-05 06:22 |
|---|---|
| Airport | Shanghai Pudong International Airport (ZSPD) |
Arrival
| Time | N/A |
|---|---|
| Airport | Los Angeles International Airport (KLAX) |
| Time | Latitude | Longitude | Altitude | Speed | Heading |
|---|---|---|---|---|---|
| 2026-05-05 05:55 | 31.14656 | 121.79612 | 26 ft | 0 kts | 252° |
| 2026-05-05 06:07 | 31.14658 | 121.79621 | 26 ft | 2 kts | 252° |
| 2026-05-05 06:07 | 31.14663 | 121.79638 | 26 ft | 2 kts | 252° |
| 2026-05-05 06:07 | 31.14668 | 121.79655 | 26 ft | 2 kts | 252° |
| 2026-05-05 06:08 | 31.14672 | 121.79671 | 26 ft | 2 kts | 252° |
| 2026-05-05 06:08 | 31.14679 | 121.79687 | 26 ft | 2 kts | 218° |
| 2026-05-05 06:08 | 31.14692 | 121.79694 | 26 ft | 2 kts | 183° |
| 2026-05-05 06:08 | 31.14707 | 121.79691 | 26 ft | 2 kts | 157° |
| 2026-05-05 06:09 | 31.14721 | 121.79684 | 26 ft | 2 kts | 159° |
| 2026-05-05 06:09 | 31.14735 | 121.79678 | 26 ft | 2 kts | 162° |
| 2026-05-05 06:09 | 31.14743 | 121.79675 | 26 ft | 0 kts | 163° |
| 2026-05-05 06:11 | 31.14736 | 121.79678 | 26 ft | 2 kts | 162° |
| 2026-05-05 06:11 | 31.14710 | 121.79688 | 26 ft | 5 kts | 162° |
| 2026-05-05 06:11 | 31.14670 | 121.79703 | 26 ft | 8 kts | 162° |
| 2026-05-05 06:11 | 31.14615 | 121.79724 | 26 ft | 7 kts | 162° |
| 2026-05-05 06:12 | 31.14573 | 121.79740 | 26 ft | 5 kts | 162° |
| 2026-05-05 06:12 | 31.14556 | 121.79746 | 26 ft | 4 kts | 162° |
| 2026-05-05 06:12 | 31.14530 | 121.79756 | 26 ft | 4 kts | 162° |
| 2026-05-05 06:12 | 31.14493 | 121.79770 | 26 ft | 6 kts | 162° |
| 2026-05-05 06:13 | 31.14447 | 121.79760 | 26 ft | 7 kts | 215° |
| 2026-05-05 06:13 | 31.14412 | 121.79705 | 26 ft | 9 kts | 248° |
| 2026-05-05 06:13 | 31.14392 | 121.79624 | 26 ft | 11 kts | 254° |
| 2026-05-05 06:13 | 31.14366 | 121.79535 | 26 ft | 12 kts | 256° |
| 2026-05-05 06:14 | 31.14411 | 121.79463 | 26 ft | 13 kts | 340° |
| 2026-05-05 06:14 | 31.14502 | 121.79430 | 26 ft | 12 kts | 342° |
| 2026-05-05 06:14 | 31.14578 | 121.79401 | 26 ft | 10 kts | 342° |
| 2026-05-05 06:14 | 31.14649 | 121.79374 | 26 ft | 10 kts | 342° |
| 2026-05-05 06:15 | 31.14722 | 121.79346 | 26 ft | 11 kts | 342° |
| 2026-05-05 06:15 | 31.14796 | 121.79318 | 26 ft | 11 kts | 342° |
| 2026-05-05 06:15 | 31.14868 | 121.79291 | 26 ft | 10 kts | 342° |
| 2026-05-05 06:15 | 31.14931 | 121.79268 | 26 ft | 8 kts | 341° |
| 2026-05-05 06:16 | 31.14996 | 121.79242 | 26 ft | 11 kts | 341° |
| 2026-05-05 06:16 | 31.15086 | 121.79208 | 26 ft | 15 kts | 343° |
| 2026-05-05 06:16 | 31.15181 | 121.79173 | 26 ft | 13 kts | 342° |
| 2026-05-05 06:16 | 31.15259 | 121.79144 | 26 ft | 10 kts | 342° |
| 2026-05-05 06:17 | 31.15305 | 121.79127 | 26 ft | 10 kts | 342° |
| 2026-05-05 06:17 | 31.15408 | 121.79086 | 26 ft | 12 kts | 341° |
| 2026-05-05 06:17 | 31.15468 | 121.79063 | 26 ft | 13 kts | 343° |
| 2026-05-05 06:17 | 31.15597 | 121.79015 | 26 ft | 15 kts | 342° |
| 2026-05-05 06:18 | 31.15703 | 121.78975 | 26 ft | 16 kts | 342° |
| 2026-05-05 06:18 | 31.15817 | 121.78932 | 26 ft | 16 kts | 342° |
| 2026-05-05 06:18 | 31.15907 | 121.78898 | 26 ft | 8 kts | 342° |
| 2026-05-05 06:18 | 31.15952 | 121.78873 | 26 ft | 6 kts | 311° |
| 2026-05-05 06:19 | 31.15961 | 121.78833 | 26 ft | 4 kts | 271° |
| 2026-05-05 06:19 | 31.15960 | 121.78806 | 26 ft | 2 kts | 252° |
| 2026-05-05 06:19 | 31.15957 | 121.78797 | 26 ft | 0 kts | 252° |
| 2026-05-05 06:19 | 31.15957 | 121.78796 | 26 ft | 0 kts | 252° |
| 2026-05-05 06:20 | 31.15951 | 121.78775 | 26 ft | 5 kts | 252° |
| 2026-05-05 06:20 | 31.15936 | 121.78719 | 26 ft | 8 kts | 250° |
| 2026-05-05 06:20 | 31.15892 | 121.78690 | 26 ft | 6 kts | 180° |
| 2026-05-05 06:20 | 31.15852 | 121.78700 | 26 ft | 5 kts | 164° |
| 2026-05-05 06:21 | 31.15740 | 121.78741 | 26 ft | 39 kts | 162° |
| 2026-05-05 06:21 | 31.15287 | 121.78912 | 26 ft | 96 kts | 162° |
| 2026-05-05 06:21 | 31.14477 | 121.79217 | 26 ft | 148 kts | 162° |
| 2026-05-05 06:21 | 31.13432 | 121.79614 | 56 ft | 186 kts | 163° |
| 2026-05-05 06:22 | 31.13352 | 121.79643 | 83 ft | 186 kts | 163° |
| 2026-05-05 06:22 | 31.12824 | 121.79840 | 213 ft | 193 kts | 162° |
| 2026-05-05 06:22 | 31.11572 | 121.80295 | 826 ft | 191 kts | 164° |
| 2026-05-05 06:23 | 31.10260 | 121.80729 | 1343 ft | 199 kts | 165° |
| 2026-05-05 06:23 | 31.08888 | 121.81181 | 1571 ft | 216 kts | 165° |
| 2026-05-05 06:23 | 31.07363 | 121.81694 | 1828 ft | 234 kts | 165° |
| 2026-05-05 06:23 | 31.05725 | 121.82248 | 2100 ft | 252 kts | 165° |
| 2026-05-05 06:24 | 31.04010 | 121.82828 | 2643 ft | 258 kts | 165° |
| 2026-05-05 06:24 | 31.02299 | 121.83407 | 2976 ft | 254 kts | 164° |
| 2026-05-05 06:24 | 31.00627 | 121.83972 | 2976 ft | 241 kts | 164° |
| 2026-05-05 06:24 | 30.99054 | 121.84569 | 2981 ft | 238 kts | 159° |
| 2026-05-05 06:25 | 30.97466 | 121.85310 | 3325 ft | 249 kts | 159° |
| 2026-05-05 06:25 | 30.95831 | 121.86080 | 3735 ft | 261 kts | 159° |
| 2026-05-05 06:25 | 30.94113 | 121.86888 | 4144 ft | 271 kts | 159° |
| 2026-05-05 06:25 | 30.92345 | 121.87701 | 4791 ft | 273 kts | 162° |
| 2026-05-05 06:26 | 30.90528 | 121.88357 | 5346 ft | 278 kts | 163° |
| 2026-05-05 06:26 | 30.88638 | 121.89019 | 5890 ft | 284 kts | 162° |
| 2026-05-05 06:26 | 30.86752 | 121.89700 | 6497 ft | 287 kts | 162° |
| 2026-05-05 06:26 | 30.84842 | 121.90398 | 7086 ft | 290 kts | 162° |
| 2026-05-05 06:27 | 30.83001 | 121.91420 | 7562 ft | 295 kts | 140° |
| 2026-05-05 06:27 | 30.81102 | 121.95503 | 8548 ft | 299 kts | 92° |
| 2026-05-05 06:27 | 30.81348 | 121.97873 | 9056 ft | 301 kts | 73° |
| 2026-05-05 06:28 | 30.81985 | 122.00206 | 9627 ft | 303 kts | 70° |
| 2026-05-05 06:28 | 30.82659 | 122.02533 | 10139 ft | 307 kts | 70° |
| 2026-05-05 06:28 | 30.83343 | 122.04938 | 10383 ft | 321 kts | 70° |
| 2026-05-05 06:28 | 30.84052 | 122.07468 | 10559 ft | 338 kts | 71° |
| 2026-05-05 06:29 | 30.84786 | 122.10104 | 10786 ft | 353 kts | 71° |
| 2026-05-05 06:29 | 30.85559 | 122.12883 | 11018 ft | 369 kts | 71° |